Latest Weather Observations for Bundaberg

IDQ60801

Issued at 5:02 am EST Monday 21 August 2017 (issued every 30 minutes, with the page automatically refreshed every 10 minutes)

About weather observations | Map of weather stations | Latest weather observations for QLD | Other Formats
Station Details ID: 039128 Name: BUNDABERG AERO Lat: -24.91 Lon: 152.32 Height: 30.82 m
Data from the previous 72 hours. | See also: Recent months at Bundaberg
Date/Time
EST
Temp
°C
App
Temp
°C
Dew
Point
°C
Rel
Hum
%
Delta-T
°C
Wind Press
QNH
hPa
Press
MSL
hPa
Rain since
9am
mm
Dir  Spd
km/h
Gust
km/h
Spd
kts
Gust
kts
21/05:00am 8.8 5.4 6.1 83 1.2 SW 13 17 7 9 1019.6 1019.6 0.0
21/04:30am 8.5 5.6 6.5 87 0.9 SW 11 13 6 7 1019.5 1019.5 0.0
21/04:00am 8.4 5.8 5.9 84 1.1 SW 9 13 5 7 1019.2 1019.2 0.0
21/03:30am 8.7 6.6 6.7 87 0.9 SSW 7 11 4 6 1019.2 1019.2 0.0
21/03:00am 6.8 4.3 5.0 88 0.8 SW 7 11 4 6 1019.2 1019.2 0.0
21/02:30am 6.9 4.0 4.9 87 0.9 SW 9 11 5 6 1019.3 1019.3 0.0
21/02:00am 7.1 4.9 5.4 89 0.8 SW 6 9 3 5 1019.4 1019.4 0.0
21/01:30am 7.9 5.9 6.4 90 0.7 WSW 6 7 3 4 1019.7 1019.7 0.0
21/01:00am 7.6 5.4 5.4 86 1.0 SW 6 7 3 4 1019.8 1019.8 0.0
21/12:30am 9.8 8.6 6.5 80 1.5 SSW 2 6 1 3 1019.8 1019.8 0.0
21/12:00am 10.5 7.6 6.6 77 1.8 S 11 11 6 6 1020.2 1020.2 0.0
 
Date/Time
EST
Temp
°C
App
Temp
°C
Dew
Point
°C
Rel
Hum
%
Delta-T
°C
Wind Press
QNH
hPa
Press
MSL
hPa
Rain since
9am
mm
Dir  Spd
km/h
Gust
km/h
Spd
kts
Gust
kts
20/11:30pm 10.7 7.9 6.8 77 1.8 S 11 13 6 7 1020.4 1020.4 0.0
20/11:00pm 11.5 8.5 7.6 77 1.9 S 13 15 7 8 1020.3 1020.3 0.0
20/10:30pm 10.4 7.9 6.5 77 1.8 S 9 11 5 6 1020.5 1020.5 0.0
20/10:00pm 11.6 9.3 7.3 75 2.1 S 9 11 5 6 1020.8 1020.8 0.0
20/09:30pm 11.9 9.2 7.4 74 2.2 SSW 11 13 6 7 1020.9 1020.9 0.0
20/09:00pm 11.9 9.2 7.2 73 2.3 S 11 13 6 7 1020.7 1020.7 0.0
20/08:30pm 12.6 10.4 7.7 72 2.4 S 9 13 5 7 1020.8 1020.8 0.0
20/08:00pm 11.9 10.0 6.6 70 2.5 SSE 6 7 3 4 1020.6 1020.6 0.0
20/07:30pm 13.9 12.0 7.4 65 3.2 SE 7 9 4 5 1020.3 1020.3 0.0
20/07:00pm 13.4 12.3 7.0 65 3.1 W 2 7 1 4 1019.9 1019.9 0.0
20/06:30pm 14.5 11.3 6.8 60 3.7 E 13 17 7 9 1019.4 1019.4 0.0
20/06:00pm 14.8 11.5 6.4 57 4.1 E 13 15 7 8 1018.9 1018.8 0.0
20/05:30pm 17.2 13.1 6.4 49 5.3 E 17 20 9 11 1018.4 1018.3 0.0
20/05:00pm 18.5 13.7 4.7 40 6.6 E 19 22 10 12 1018.1 1018.0 0.0
20/04:30pm 19.7 15.0 3.0 33 7.8 E 17 20 9 11 1017.8 1017.7 0.0
20/04:00pm 20.4 15.1 1.8 29 8.5 E 19 28 10 15 1017.5 1017.4 0.0
20/03:30pm 21.1 15.5 -2.7 20 10.1 SE 17 28 9 15 1017.4 1017.3 0.0
20/03:00pm 21.1 15.5 -2.7 20 10.0 SSW 17 24 9 13 1017.3 1017.2 0.0
20/02:30pm 21.1 16.0 -2.0 21 9.9 SSE 15 28 8 15 1017.4 1017.3 0.0
20/02:00pm 20.9 15.7 -2.9 20 10.0 ESE 15 28 8 15 1017.6 1017.5 0.0
20/01:30pm 20.8 15.2 -3.0 20 10.0 SE 17 26 9 14 1017.9 1017.8 0.0
20/01:00pm 20.6 15.3 -3.8 19 10.0 SSE 15 24 8 13 1018.3 1018.2 0.0
20/12:30pm 19.9 14.6 -3.7 20 9.7 S 15 24 8 13 1018.6 1018.5 0.0
20/12:00pm 19.6 13.6 -2.7 22 9.3 SSW 19 26 10 14 1019.0 1018.9 0.0
20/11:30am 19.4 13.8 -2.8 22 9.2 S 17 28 9 15 1019.5 1019.5 0.0
20/11:00am 18.9 12.8 -2.7 23 8.9 SSE 20 35 11 19 1020.1 1020.1 0.0
20/10:30am 17.5 11.3 -3.3 24 8.4 S 20 30 11 16 1020.6 1020.6 0.0
20/10:00am 16.9 10.8 -2.7 26 7.9 S 20 30 11 16 1021.0 1021.0 0.0
20/09:30am 15.6 9.6 -3.3 27 7.5 S 19 28 10 15 1021.0 1021.0 0.0
20/09:00am 14.5 8.5 -3.3 29 6.9 SSW 19 26 10 14 1020.8 1020.8 0.0
20/08:30am 13.2 7.0 -3.1 32 6.3 SW 20 28 11 15 1020.8 1020.8 0.0
20/08:00am 11.9 5.9 -2.7 36 5.6 SW 19 30 10 16 1020.6 1020.6 0.0
20/07:30am 10.5 5.3 -2.8 39 5.0 SW 15 22 8 12 1020.4 1020.4 0.0
20/07:00am 9.0 3.8 -2.9 43 4.4 SW 15 20 8 11 1020.1 1020.1 0.0
20/06:30am 8.1 3.2 -3.4 44 4.2 SW 13 19 7 10 1019.6 1019.6 0.0
20/06:00am 8.2 3.3 -3.6 43 4.3 SW 13 17 7 9 1019.3 1019.3 0.0
20/05:30am 8.5 3.6 -3.7 42 4.4 SW 13 19 7 10 1019.1 1019.1 0.0
20/05:00am 9.0 4.0 -4.2 39 4.7 SW 13 20 7 11 1018.6 1018.5 0.0
20/04:30am 9.2 3.9 -4.0 39 4.8 SW 15 20 8 11 1018.3 1018.2 0.0
20/04:00am 9.7 4.3 -4.3 37 5.1 SW 15 20 8 11 1018.3 1018.2 0.0
20/03:30am 9.8 4.4 -4.2 37 5.1 SW 15 22 8 12 1018.0 1017.9 0.0
20/03:00am 10.7 5.3 -4.5 34 5.5 SW 15 20 8 11 1018.2 1018.1 0.0
20/02:30am 11.6 5.2 -4.5 32 5.9 SW 20 28 11 15 1018.3 1018.2 0.0
20/02:00am 11.8 5.5 -4.3 32 6.0 SW 20 30 11 16 1018.4 1018.3 0.0
20/01:30am 11.3 6.0 -4.0 34 5.7 SW 15 22 8 12 1018.8 1018.7 0.0
20/01:00am 12.0 6.2 -4.2 32 6.0 SW 17 22 9 12 1018.7 1018.6 0.0
20/12:30am 11.7 6.7 -4.0 33 5.9 SSW 13 20 7 11 1018.9 1018.8 0.0
20/12:00am 12.4 7.8 -3.8 32 6.1 SSW 11 17 6 9 1019.1 1019.1 0.0
 
Date/Time
EST
Temp
°C
App
Temp
°C
Dew
Point
°C
Rel
Hum
%
Delta-T
°C
Wind Press
QNH
hPa
Press
MSL
hPa
Rain since
9am
mm
Dir  Spd
km/h
Gust
km/h
Spd
kts
Gust
kts
19/11:30pm 13.5 7.7 -4.2 29 6.7 SSW 17 26 9 14 1019.1 1019.1 0.0
19/11:00pm 14.0 7.2 -4.7 27 7.0 SW 22 35 12 19 1019.0 1018.9 0.0
19/10:30pm 14.0 7.6 -4.7 27 7.1 SW 20 30 11 16 1019.0 1018.9 0.0
19/10:00pm 14.2 7.8 -4.5 27 7.1 SW 20 28 11 15 1019.2 1019.2 0.0
19/09:30pm 14.0 7.9 -4.2 28 6.9 SW 19 24 10 13 1019.5 1019.5 0.0
19/09:00pm 14.0 8.7 -3.3 30 6.7 SSW 15 24 8 13 1019.3 1019.3 0.0
19/08:30pm 14.4 9.0 -4.8 26 7.3 SSW 15 22 8 12 1019.0 1018.9 0.0
19/08:00pm 15.0 9.6 -4.8 25 7.5 SW 15 20 8 11 1018.5 1018.4 0.0
19/07:30pm 15.3 9.9 -4.1 26 7.5 SSW 15 22 8 12 1018.0 1017.9 0.0
19/07:00pm 15.3 10.3 -4.1 26 7.5 SSW 13 17 7 9 1017.7 1017.6 0.0
19/06:30pm 16.7 11.2 -5.1 22 8.4 SSW 15 20 8 11 1017.2 1017.1 0.0
19/06:00pm 17.6 12.1 -5.0 21 8.8 SSW 15 20 8 11 1016.5 1016.4 0.0
19/05:30pm 18.6 13.5 -4.8 20 9.3 SSW 13 20 7 11 1016.0 1015.9 0.0
19/05:00pm 20.2 13.3 -6.4 16 10.3 SSW 22 30 12 16 1015.6 1015.5 0.0
19/04:30pm 21.0 13.4 -5.7 16 10.6 SW 26 37 14 20 1015.2 1015.1 0.0
19/04:00pm 21.5 14.3 -5.3 16 10.8 SW 24 39 13 21 1014.8 1014.7 0.0
19/03:30pm 21.8 14.6 -5.1 16 10.9 SW 24 37 13 20 1014.6 1014.5 0.0
19/03:00pm 21.5 12.2 -5.3 16 10.8 SSW 35 50 19 27 1014.5 1014.4 0.0
19/02:30pm 21.8 12.6 -4.3 17 10.8 SW 35 54 19 29 1014.3 1014.2 0.0
19/02:08pm 21.6 12.7 -5.3 16 10.9 SW 33 52 18 28 1014.4 1014.3 0.0
19/02:00pm 21.7 12.9 -4.4 17 10.7 SW 33 48 18 26 1014.4 1014.3 0.0
19/01:50pm 21.5 13.3 -3.8 18 10.5 SW 30 48 16 26 1014.6 1014.5 0.0
19/01:30pm 21.1 13.3 -3.4 19 10.2 SW 28 43 15 23 1014.8 1014.7 0.0
19/01:00pm 21.3 14.3 -3.2 19 10.3 SSW 24 48 13 26 1015.3 1015.2 0.0
19/12:48pm 20.5 12.3 -3.9 19 10.0 SSW 30 48 16 26 1015.5 1015.4 0.0
19/12:30pm 20.3 11.9 -2.7 21 9.7 SW 32 44 17 24 1015.8 1015.7 0.0
19/12:08pm 20.1 11.6 -3.5 20 9.7 SW 32 50 17 27 1016.1 1016.0 0.0
19/12:00pm 20.3 11.7 -2.7 21 9.6 SW 33 46 18 25 1016.3 1016.2 0.0
19/11:40am 19.8 11.7 -3.1 21 9.5 SW 30 48 16 26 1016.7 1016.6 0.0
19/11:30am 20.2 11.8 -2.2 22 9.5 SW 32 44 17 24 1016.9 1016.8 0.0
19/11:00am 19.2 10.9 -1.8 24 8.9 SW 32 50 17 27 1017.3 1017.2 0.0
19/10:57am 19.0 10.7 -2.0 24 8.8 SW 32 50 17 27 1017.4 1017.3 0.0
19/10:30am 18.5 10.0 -1.9 25 8.6 SW 33 48 18 26 1017.8 1017.7 0.0
19/10:15am 18.1 9.7 -2.2 25 8.4 SW 32 50 17 27 1018.0 1017.9 0.0
19/10:00am 17.7 8.8 -2.0 26 8.2 SW 35 52 19 28 1018.2 1018.1 0.0
19/09:56am 18.0 9.5 -1.8 26 8.3 SW 33 52 18 28 1018.2 1018.1 0.0
19/09:30am 17.6 8.7 -1.6 27 8.0 SW 35 50 19 27 1018.5 1018.4 0.0
19/09:00am 16.6 8.3 -2.0 28 7.6 SW 32 48 17 26 1018.8 1018.7 0.0
19/08:30am 15.9 8.8 -1.6 30 7.2 SW 26 41 14 22 1018.9 1018.8 0.0
19/08:00am 15.1 7.9 -1.9 31 6.9 SW 26 39 14 21 1019.2 1019.2 0.0
19/07:30am 14.2 8.1 -2.2 32 6.6 SW 20 32 11 17 1019.0 1018.9 0.0
19/07:00am 13.6 7.4 -2.8 32 6.4 SW 20 32 11 17 1018.8 1018.7 0.0
19/06:30am 12.7 6.7 -2.7 34 6.0 SW 19 28 10 15 1018.5 1018.4 0.0
19/06:00am 12.9 7.3 -3.0 33 6.1 SW 17 24 9 13 1018.3 1018.2 0.0
19/05:30am 12.8 8.3 -3.5 32 6.2 SW 11 19 6 10 1018.0 1017.9 0.0
19/05:00am 12.8 7.9 -3.0 33 6.1 SW 13 20 7 11 1017.7 1017.6 0.0
19/04:30am 12.9 8.0 -3.0 33 6.2 SW 13 17 7 9 1017.5 1017.4 0.0
19/04:00am 12.6 8.2 -2.8 34 6.0 SW 11 17 6 9 1017.3 1017.2 0.0
19/03:30am 12.4 7.9 -3.4 33 6.0 WSW 11 13 6 7 1017.2 1017.1 0.0
19/03:00am 13.2 8.6 -4.0 30 6.5 SW 11 17 6 9 1017.0 1016.9 0.0
19/02:30am 13.8 9.1 -4.8 27 7.0 SSW 11 17 6 9 1017.1 1017.0 0.0
19/02:00am 15.9 10.0 -5.2 23 8.0 SW 17 22 9 12 1017.1 1017.0 0.0
19/01:30am 15.6 9.8 -4.9 24 7.8 SW 17 22 9 12 1017.0 1016.9 0.0
19/01:00am 13.0 8.3 -2.1 35 6.0 WSW 13 17 7 9 1017.1 1017.0 0.0
19/12:30am 14.3 9.8 -3.5 29 6.9 W 11 13 6 7 1017.2 1017.1 0.0
19/12:00am 13.2 9.1 -3.1 32 6.3 WNW 9 11 5 6 1017.3 1017.2 0.0
 
Date/Time
EST
Temp
°C
App
Temp
°C
Dew
Point
°C
Rel
Hum
%
Delta-T
°C
Wind Press
QNH
hPa
Press
MSL
hPa
Rain since
9am
mm
Dir  Spd
km/h
Gust
km/h
Spd
kts
Gust
kts
18/11:30pm 16.3 12.4 -4.8 23 8.1 WSW 7 9 4 5 1017.5 1017.4 0.0
18/11:00pm 17.5 12.8 -5.0 21 8.7 SW 11 17 6 9 1017.6 1017.5 0.0
18/10:30pm 17.5 12.9 -4.4 22 8.6 SW 11 15 6 8 1017.5 1017.4 0.0
18/10:00pm 18.3 13.7 -3.8 22 8.9 SW 11 15 6 8 1017.6 1017.5 0.0
18/09:30pm 18.3 13.9 -2.6 24 8.6 SW 11 15 6 8 1017.3 1017.2 0.0
18/09:00pm 19.0 14.7 -2.0 24 8.8 SW 11 13 6 7 1016.9 1016.8 0.0
18/08:30pm 20.0 15.5 -3.0 21 9.6 SW 11 13 6 7 1016.7 1016.6 0.0
18/08:00pm 19.9 15.2 -1.8 23 9.2 SW 13 15 7 8 1016.3 1016.2 0.0
18/07:30pm 20.2 16.3 -1.6 23 9.3 SW 9 13 5 7 1016.1 1016.0 0.0
18/07:00pm 21.3 17.3 -1.9 21 10.0 SW 9 11 5 6 1015.6 1015.5 0.0
18/06:30pm 22.6 18.3 -1.5 20 10.6 SW 11 13 6 7 1015.1 1015.0 0.0
18/06:00pm 24.1 19.5 -0.9 19 11.2 WSW 13 20 7 11 1014.4 1014.3 0.0
18/05:30pm 25.0 20.5 -0.2 19 11.6 WSW 13 19 7 10 1013.9 1013.8 0.0
18/05:00pm 27.1 21.5 0.0 17 12.7 WSW 19 30 10 16 1013.4 1013.3 0.0
18/04:30pm 27.8 22.3 0.5 17 13.0 WSW 19 24 10 13 1013.0 1012.9 0.0
18/04:00pm 28.3 22.7 0.9 17 13.1 SW 20 28 11 15 1012.8 1012.7 0.0
18/03:30pm 28.7 23.1 1.3 17 13.3 SW 20 33 11 18 1012.7 1012.6 0.0
18/03:00pm 28.7 22.0 1.3 17 13.3 WSW 26 37 14 20 1012.8 1012.7 0.0
18/02:30pm 28.7 22.5 2.1 18 13.1 WSW 24 41 13 22 1013.1 1013.0 0.0
18/02:00pm 28.5 23.3 3.4 20 12.6 WSW 20 35 11 19 1013.3 1013.2 0.0
18/01:30pm 28.1 22.3 2.3 19 12.7 WSW 22 35 12 19 1013.5 1013.4 0.0
18/01:00pm 28.0 22.4 1.5 18 12.8 WSW 20 32 11 17 1014.1 1014.0 0.0
18/12:30pm 27.3 20.3 1.7 19 12.4 WSW 28 39 15 21 1014.3 1014.2 0.0
18/12:00pm 26.8 20.5 1.3 19 12.2 SW 24 37 13 20 1015.0 1014.9 0.0
18/11:30am 26.6 20.3 1.8 20 11.9 SW 24 35 13 19 1015.5 1015.4 0.0
18/11:00am 25.9 18.4 1.2 20 11.7 SW 30 43 16 23 1016.1 1016.0 0.0
18/10:30am 25.6 20.0 1.0 20 11.6 SSW 20 33 11 18 1016.6 1016.5 0.0
18/10:00am 24.8 19.3 1.7 22 10.9 SW 20 32 11 17 1017.0 1016.9 0.0
18/09:30am 23.9 18.3 1.5 23 10.5 SW 20 32 11 17 1017.1 1017.0 0.0
18/09:00am 22.7 18.7 6.5 35 8.3 SW 17 28 9 15 1017.2 1017.1 0.0
18/08:30am 21.2 19.6 10.1 49 6.0 SW 9 17 5 9 1017.1 1017.0 0.0
18/08:00am 18.4 18.2 13.5 73 2.8 WSW 7 11 4 6 1016.9 1016.8 0.0
18/07:30am 17.2 19.6 17.0 99 0.1 CALM 0 7 0 4 1016.5 1016.4 0.0
18/07:02am 15.0 15.2 14.8 99 0.1 SW 7 9 4 5 1016.3 1016.2 0.0
18/07:00am 14.8 15.0 14.6 99 0.1 SW 7 9 4 5 1016.2 1016.1 0.0
18/06:30am 13.9 15.1 13.7 99 0.1 CALM 0 0 0 0 1015.9 1015.8 0.0
18/06:04am 13.7 13.4 13.4 98 0.2 SW 7 9 4 5 1015.5 1015.4 0.0
18/06:00am 13.6 13.2 13.1 97 0.3 SSW 7 9 4 5 1015.4 1015.3 0.0
18/05:43am 13.7 13.5 13.5 99 0.1 SSW 7 9 4 5 1015.1 1015.0 0.0
18/05:30am 14.6 14.7 14.4 99 0.1 SSW 7 9 4 5 1014.9 1014.8 0.0

Other Formats:

Comma delimited format used in spreadsheet applications
http://www.bom.gov.au/fwo/IDQ60801/IDQ60801.94387.axf

JavaScript Object Notation format (JSON) in row-major order
http://www.bom.gov.au/fwo/IDQ60801/IDQ60801.94387.json